createdAt,value
2019-02-04T00:01:23.373Z,7.80
2019-02-04T00:03:52.856Z,8.90
2019-02-04T00:06:20.804Z,8.50
2019-02-04T00:08:48.767Z,8.70
2019-02-04T00:11:16.701Z,7.95
2019-02-04T00:13:44.575Z,8.50
2019-02-04T00:16:12.804Z,9.30
2019-02-04T00:18:40.896Z,8.20
2019-02-04T00:21:08.880Z,9.70
2019-02-04T00:23:36.841Z,8.23
2019-02-04T00:26:04.789Z,8.48
2019-02-04T00:28:33.844Z,8.63
2019-02-04T00:31:05.045Z,7.75
2019-02-04T00:33:32.439Z,8.15
2019-02-04T00:36:00.346Z,8.20
2019-02-04T00:38:28.400Z,7.75
2019-02-04T00:40:56.333Z,7.60
2019-02-04T00:43:24.319Z,7.80
2019-02-04T00:45:52.338Z,7.60
2019-02-04T00:48:20.891Z,7.75
2019-02-04T00:50:49.128Z,8.23
2019-02-04T00:53:17.090Z,7.30
2019-02-04T00:55:45.024Z,8.25
2019-02-04T00:58:12.981Z,7.65
2019-02-04T01:00:40.942Z,8.50
2019-02-04T01:03:09.411Z,8.23
2019-02-04T01:05:37.265Z,7.97
2019-02-04T01:08:05.338Z,8.00
2019-02-04T01:10:35.585Z,7.70
2019-02-04T01:13:03.640Z,7.17
2019-02-04T01:15:31.631Z,7.53
2019-02-04T01:17:59.594Z,8.08
2019-02-04T01:20:28.369Z,7.35
2019-02-04T01:22:58.109Z,6.95
2019-02-04T01:25:27.047Z,7.80
2019-02-04T01:27:54.980Z,7.50
2019-02-04T01:30:23.882Z,7.70
2019-02-04T01:32:52.146Z,8.03
2019-02-04T01:35:20.314Z,7.17
2019-02-04T01:37:48.275Z,7.95
2019-02-04T01:40:19.689Z,7.08
2019-02-04T01:42:48.007Z,7.42
2019-02-04T01:45:15.925Z,7.25
2019-02-04T01:47:43.922Z,7.05
2019-02-04T01:50:15.238Z,6.60
2019-02-04T01:52:43.266Z,7.47
2019-02-04T01:55:11.486Z,8.05
2019-02-04T01:57:42.139Z,7.15
2019-02-04T02:00:17.104Z,7.95
2019-02-04T02:02:45.206Z,8.35
2019-02-04T02:05:13.431Z,7.58
2019-02-04T02:07:43.373Z,7.55
2019-02-04T02:10:15.033Z,8.30
2019-02-04T02:12:43.067Z,7.80
2019-02-04T02:15:10.982Z,7.83
2019-02-04T02:17:39.692Z,7.80
2019-02-04T02:20:10.054Z,7.55
2019-02-04T02:22:37.960Z,7.90
2019-02-04T02:25:06.177Z,7.42
2019-02-04T02:27:34.065Z,8.08
2019-02-04T02:30:02.109Z,8.58
2019-02-04T02:32:31.186Z,8.20
2019-02-04T02:34:59.678Z,9.15
2019-02-04T02:37:27.585Z,7.10
2019-02-04T02:39:55.501Z,7.92
2019-02-04T02:42:23.444Z,7.35
2019-02-04T02:44:51.439Z,7.80
2019-02-04T02:47:19.309Z,9.00
2019-02-04T02:49:47.255Z,9.00
2019-02-04T02:52:15.166Z,8.58
2019-02-04T02:54:43.115Z,7.60
2019-02-04T02:57:11.022Z,8.40
2019-02-04T02:59:38.925Z,8.25
2019-02-04T03:02:06.882Z,7.22
2019-02-04T03:04:34.786Z,8.38
2019-02-04T03:07:03.053Z,7.37
2019-02-04T03:09:30.924Z,9.50
2019-02-04T03:11:58.895Z,7.87
2019-02-04T03:14:26.843Z,7.62
2019-02-04T03:16:54.702Z,7.60
2019-02-04T03:19:22.623Z,7.65
2019-02-04T03:21:50.526Z,8.35
2019-02-04T03:24:19.627Z,7.80
2019-02-04T03:26:48.266Z,7.30
2019-02-04T03:29:16.133Z,7.87
2019-02-04T03:31:46.015Z,8.00
2019-02-04T03:34:13.913Z,8.60
2019-02-04T03:36:41.841Z,9.48
2019-02-04T03:39:10.025Z,9.20
2019-02-04T03:41:57.364Z,9.50
2019-02-04T03:44:37.975Z,9.13
2019-02-04T03:47:25.965Z,8.70
2019-02-04T03:50:06.790Z,9.10
2019-02-04T03:52:34.650Z,8.05
2019-02-04T03:55:02.760Z,7.90
2019-02-04T03:57:30.693Z,8.48
2019-02-04T03:59:58.611Z,9.68
2019-02-04T04:02:26.571Z,7.85
2019-02-04T04:05:07.895Z,7.70
2019-02-04T04:07:35.745Z,8.30
2019-02-04T04:10:17.476Z,8.05
2019-02-04T04:15:47.650Z,8.40
2019-02-04T04:18:16.302Z,8.83
2019-02-04T04:20:44.300Z,8.93
2019-02-04T04:23:12.331Z,8.20
2019-02-04T04:25:59.734Z,8.70
2019-02-04T04:28:27.723Z,7.42
2019-02-04T04:30:56.805Z,7.95
2019-02-04T04:33:24.748Z,8.15
2019-02-04T04:35:52.706Z,8.83
2019-02-04T04:38:20.608Z,8.83
2019-02-04T04:40:48.550Z,9.58
2019-02-04T04:43:16.746Z,8.60
2019-02-04T04:45:44.773Z,9.70
2019-02-04T04:48:26.839Z,8.50
2019-02-04T04:51:14.609Z,8.30
2019-02-04T04:53:56.760Z,9.68
2019-02-04T04:56:37.150Z,8.10
2019-02-04T04:59:24.744Z,9.50
2019-02-04T05:02:05.397Z,9.00
2019-02-04T05:04:33.368Z,9.03
2019-02-04T05:07:22.895Z,9.40
2019-02-04T05:10:04.120Z,8.08
2019-02-04T05:12:51.551Z,8.68
2019-02-04T05:15:46.117Z,10.30
2019-02-04T05:18:14.175Z,9.20
2019-02-04T05:20:55.176Z,9.88
2019-02-04T05:23:42.661Z,9.65
2019-02-04T05:26:23.584Z,9.50
2019-02-04T05:28:51.615Z,9.03
2019-02-04T05:31:32.609Z,8.88
2019-02-04T05:34:19.249Z,8.68
2019-02-04T05:37:02.211Z,9.70
2019-02-04T05:39:30.102Z,9.50
2019-02-04T05:41:58.131Z,10.53
2019-02-04T05:44:45.575Z,8.95
2019-02-04T05:47:26.503Z,8.75
2019-02-04T05:49:54.546Z,10.80
2019-02-04T05:52:22.500Z,9.68
2019-02-04T05:54:50.777Z,8.93
2019-02-04T05:57:18.863Z,9.80
2019-02-04T06:00:08.334Z,9.10
2019-02-04T06:02:49.112Z,9.00
2019-02-04T06:05:36.630Z,9.00
2019-02-04T06:08:17.168Z,8.90
2019-02-04T06:10:45.255Z,8.70
2019-02-04T06:16:33.596Z,9.70
2019-02-04T06:22:20.731Z,9.50
2019-02-04T06:25:02.250Z,9.30
2019-02-04T06:30:27.060Z,10.20
2019-02-04T06:33:22.197Z,10.05
2019-02-04T06:36:03.041Z,9.80
2019-02-04T06:41:29.651Z,10.85
2019-02-04T06:44:00.269Z,11.48
2019-02-04T06:46:42.471Z,12.15
2019-02-04T06:49:12.512Z,12.28
2019-02-04T06:51:40.681Z,11.38
2019-02-04T06:54:08.673Z,13.10
2019-02-04T06:56:36.600Z,13.15
2019-02-04T06:59:24.849Z,13.22
2019-02-04T07:02:06.093Z,14.18
2019-02-04T07:04:53.548Z,14.55
2019-02-04T07:07:35.277Z,14.63
2019-02-04T07:10:23.618Z,13.70
2019-02-04T07:13:04.342Z,14.00
2019-02-04T07:15:44.992Z,14.55
2019-02-04T07:18:26.302Z,13.60
2019-02-04T07:21:07.931Z,14.25
2019-02-04T07:23:35.895Z,14.63
2019-02-04T07:26:03.962Z,15.85
2019-02-04T07:28:33.854Z,16.93
2019-02-04T07:31:15.356Z,16.05
2019-02-04T07:33:43.461Z,15.78
2019-02-04T07:36:11.428Z,14.50
2019-02-04T07:38:40.910Z,14.20
2019-02-04T07:41:08.990Z,16.55
2019-02-04T07:43:56.399Z,15.90
2019-02-04T07:46:36.572Z,15.05
2019-02-04T07:49:34.789Z,15.65
2019-02-04T07:52:08.404Z,16.87
2019-02-04T07:54:36.330Z,14.75
2019-02-04T07:57:04.416Z,15.20
2019-02-04T07:59:32.802Z,16.37
2019-02-04T08:02:00.826Z,16.57
2019-02-04T08:04:29.927Z,15.25
2019-02-04T08:07:11.520Z,17.15
2019-02-04T08:09:59.039Z,15.25
2019-02-04T08:12:39.828Z,15.95
2019-02-04T08:15:29.979Z,14.85
2019-02-04T08:18:11.012Z,15.05
2019-02-04T08:20:39.027Z,15.45
2019-02-04T08:23:22.936Z,15.28
2019-02-04T08:25:51.005Z,14.00
2019-02-04T08:28:19.797Z,14.15
2019-02-04T08:31:07.376Z,15.25
2019-02-04T08:33:48.333Z,15.00
2019-02-04T08:36:43.240Z,15.48
2019-02-04T08:39:38.678Z,15.90
2019-02-04T08:42:06.722Z,15.23
2019-02-04T08:44:34.673Z,14.53
2019-02-04T08:47:02.628Z,15.45
2019-02-04T08:49:30.602Z,14.68
2019-02-04T08:51:58.692Z,14.47
2019-02-04T08:54:40.593Z,15.65
2019-02-04T08:57:21.649Z,15.08
2019-02-04T09:00:11.437Z,15.88
2019-02-04T09:02:39.605Z,15.85
2019-02-04T09:05:08.870Z,14.78
2019-02-04T09:07:48.959Z,16.95
2019-02-04T09:10:21.131Z,14.25
2019-02-04T09:12:50.548Z,15.13
2019-02-04T09:15:18.603Z,13.88
2019-02-04T09:18:06.466Z,13.25
2019-02-04T09:20:47.236Z,13.88
2019-02-04T09:23:35.339Z,14.00
2019-02-04T09:26:16.634Z,14.03
2019-02-04T09:28:44.617Z,14.53
2019-02-04T09:31:32.831Z,13.85
2019-02-04T09:34:17.587Z,13.90
2019-02-04T09:37:05.985Z,14.60
2019-02-04T09:39:48.070Z,13.18
2019-02-04T09:42:35.899Z,14.15
2019-02-04T09:45:17.718Z,13.58
2019-02-04T09:47:45.852Z,14.68
2019-02-04T09:50:21.791Z,14.23
2019-02-04T09:53:03.189Z,15.63
2019-02-04T09:55:51.042Z,15.43
2019-02-04T09:58:34.943Z,14.35
2019-02-04T10:01:22.504Z,14.40
2019-02-04T10:04:05.096Z,14.25
2019-02-04T10:06:55.365Z,14.58
2019-02-04T10:09:23.085Z,12.43
2019-02-04T10:11:51.341Z,13.25
2019-02-04T10:14:19.380Z,12.65
2019-02-04T10:16:47.504Z,13.95
2019-02-04T10:19:28.937Z,12.10
2019-02-04T10:22:12.770Z,12.90
2019-02-04T10:25:00.452Z,14.00
2019-02-04T10:27:28.886Z,16.25
2019-02-04T10:30:01.138Z,12.75
2019-02-04T10:32:45.336Z,13.10
2019-02-04T10:35:16.867Z,13.45
2019-02-04T10:37:44.570Z,13.20
2019-02-04T10:40:16.424Z,13.50
2019-02-04T10:42:58.742Z,14.05
2019-02-04T10:45:46.762Z,12.90
2019-02-04T10:48:15.126Z,13.05
2019-02-04T10:50:46.618Z,12.45
2019-02-04T10:53:13.975Z,14.25
2019-02-04T10:58:46.487Z,12.73
2019-02-04T11:01:14.940Z,12.20
2019-02-04T11:03:43.254Z,12.40
2019-02-04T11:06:11.443Z,13.70
2019-02-04T11:09:02.907Z,12.63
2019-02-04T11:11:45.195Z,11.55
2019-02-04T11:14:26.400Z,11.53
2019-02-04T11:17:26.747Z,11.28
2019-02-04T11:19:54.825Z,14.55
2019-02-04T11:22:42.137Z,11.73
2019-02-04T11:25:24.961Z,10.63
2019-02-04T11:27:53.269Z,10.10
2019-02-04T11:33:41.341Z,10.05
2019-02-04T11:36:29.103Z,11.70
2019-02-04T11:39:10.236Z,9.20
2019-02-04T11:41:39.070Z,11.88
2019-02-04T11:44:27.080Z,10.53
2019-02-04T11:47:20.413Z,10.70
2019-02-04T11:49:50.305Z,10.50
2019-02-04T11:52:18.808Z,10.82
2019-02-04T11:55:10.519Z,11.03
2019-02-04T11:57:55.689Z,11.00
2019-02-04T12:00:44.240Z,9.10
2019-02-04T12:03:24.710Z,10.38
2019-02-04T12:06:13.472Z,9.90
2019-02-04T12:08:54.046Z,8.75
2019-02-04T12:11:41.961Z,8.73
2019-02-04T12:14:10.356Z,9.33
2019-02-04T12:16:38.420Z,9.45
2019-02-04T12:19:18.599Z,8.60
2019-02-04T12:22:02.690Z,9.03
2019-02-04T12:24:50.056Z,9.15
2019-02-04T12:27:32.015Z,9.33
2019-02-04T12:30:31.534Z,9.18
2019-02-04T12:33:00.213Z,9.25
2019-02-04T12:35:28.191Z,8.70
2019-02-04T12:38:17.070Z,8.93
2019-02-04T12:40:45.221Z,8.70
2019-02-04T12:43:13.451Z,8.20
2019-02-04T12:45:55.510Z,9.85
2019-02-04T12:48:38.853Z,8.78
2019-02-04T12:51:07.372Z,8.35
2019-02-04T12:56:53.527Z,7.33
2019-02-04T13:05:41.659Z,6.33
2019-02-04T13:08:22.138Z,5.83
2019-02-04T13:11:10.116Z,5.87
2019-02-04T13:13:51.350Z,5.10
2019-02-04T13:16:19.462Z,5.22
2019-02-04T13:18:47.838Z,6.55
2019-02-04T13:21:45.225Z,6.22
2019-02-04T13:24:26.016Z,4.75
2019-02-04T13:27:13.665Z,5.20
2019-02-04T13:29:55.019Z,5.30
2019-02-04T13:32:42.689Z,4.78
2019-02-04T13:35:23.818Z,5.10
2019-02-04T13:38:11.627Z,5.92
2019-02-04T15:25:17.938Z,4.33
2019-02-04T15:31:21.268Z,6.05
2019-02-04T15:34:07.081Z,5.50
2019-02-04T15:37:12.696Z,4.60
2019-02-04T15:40:39.300Z,5.08
2019-02-04T15:44:07.171Z,4.85
2019-02-04T15:46:59.891Z,4.83
2019-02-04T15:50:11.749Z,5.12
2019-02-04T15:52:45.693Z,4.70
2019-02-04T15:55:14.882Z,5.47
2019-02-04T15:57:42.935Z,5.40
2019-02-04T16:00:12.067Z,4.62
2019-02-04T16:02:40.059Z,5.08
2019-02-04T16:05:09.034Z,5.62
2019-02-04T16:07:37.492Z,4.12
2019-02-04T16:10:10.149Z,4.05
2019-02-04T16:12:38.181Z,3.58
2019-02-04T16:15:07.815Z,3.77
2019-02-04T16:17:35.910Z,3.58
2019-02-04T16:20:10.421Z,4.70
2019-02-04T16:22:38.448Z,3.55
2019-02-04T16:25:08.013Z,3.40
2019-02-04T16:27:36.009Z,3.33
2019-02-04T16:30:08.227Z,3.62
2019-02-04T16:32:36.349Z,3.42
2019-02-04T16:35:06.726Z,3.17
2019-02-04T16:37:34.942Z,3.30
2019-02-04T16:40:03.780Z,2.80
2019-02-04T16:42:31.880Z,3.27
2019-02-04T16:44:59.906Z,3.50
2019-02-04T16:47:28.260Z,2.90
2019-02-04T16:49:58.397Z,3.52
2019-02-04T16:52:26.891Z,3.25
2019-02-04T16:54:55.861Z,3.10
2019-02-04T16:57:23.902Z,3.10
2019-02-04T16:59:52.124Z,3.08
2019-02-04T17:02:20.285Z,3.35
2019-02-04T17:04:59.256Z,3.80
2019-02-04T17:07:27.316Z,3.10
2019-02-04T17:09:55.342Z,3.62
2019-02-04T17:12:24.703Z,3.22
2019-02-04T17:14:52.979Z,3.55
2019-02-04T17:17:21.063Z,3.62
2019-02-04T17:19:49.197Z,3.15
2019-02-04T17:22:17.704Z,3.05
2019-02-04T17:24:45.903Z,3.50
2019-02-04T17:27:13.965Z,3.30
2019-02-04T17:29:42.035Z,4.20
2019-02-04T17:32:10.250Z,3.00
2019-02-04T17:34:38.478Z,3.95
2019-02-04T17:37:06.455Z,3.92
2019-02-04T17:39:34.666Z,4.90
2019-02-04T17:42:02.757Z,4.33
2019-02-04T17:44:31.519Z,4.00
2019-02-04T17:47:00.954Z,4.12
2019-02-04T17:49:29.212Z,4.25
2019-02-04T17:51:57.283Z,4.90
2019-02-04T17:54:25.770Z,4.00
2019-02-04T17:56:54.232Z,4.83
2019-02-04T17:59:23.219Z,4.22
2019-02-04T18:01:51.875Z,4.65
2019-02-04T18:04:20.302Z,4.20
2019-02-04T18:06:48.441Z,4.35
2019-02-04T18:09:16.855Z,3.70
2019-02-04T18:11:47.587Z,4.42
2019-02-04T18:14:15.752Z,5.12
2019-02-04T18:16:43.897Z,4.85
2019-02-04T18:19:12.204Z,5.05
2019-02-04T18:21:40.359Z,4.22
2019-02-04T18:24:09.440Z,4.85
2019-02-04T18:26:37.620Z,6.05
2019-02-04T18:29:08.024Z,3.80
2019-02-04T18:31:36.147Z,4.75
2019-02-04T18:34:05.105Z,4.58
2019-02-04T18:36:33.328Z,4.80
2019-02-04T18:39:08.551Z,5.35
2019-02-04T18:41:36.687Z,4.58
2019-02-04T18:44:06.560Z,5.00
2019-02-04T18:46:35.024Z,4.55
2019-02-04T18:49:03.556Z,5.12
2019-02-04T18:51:32.060Z,5.20
2019-02-04T18:54:00.731Z,4.50
2019-02-04T18:56:28.939Z,4.33
2019-02-04T18:58:57.058Z,4.62
2019-02-04T19:01:25.228Z,5.42
2019-02-04T19:03:53.419Z,4.50
2019-02-04T19:06:23.079Z,4.42
2019-02-04T19:08:51.579Z,4.42
2019-02-04T19:11:19.815Z,4.03
2019-02-04T19:13:48.274Z,3.70
2019-02-04T19:16:16.693Z,4.78
2019-02-04T19:18:45.950Z,5.00
2019-02-04T19:21:14.292Z,5.00
2019-02-04T19:23:43.042Z,4.50
2019-02-04T19:26:11.086Z,4.78
2019-02-04T19:28:39.240Z,5.10
2019-02-04T19:31:24.272Z,4.40
2019-02-04T19:33:52.428Z,5.10
2019-02-04T19:36:20.892Z,4.58
2019-02-04T19:38:49.220Z,4.15
2019-02-04T19:41:17.516Z,4.78
2019-02-04T19:43:46.041Z,4.20
2019-02-04T19:46:15.332Z,4.40
2019-02-04T19:48:43.886Z,4.45
2019-02-04T19:51:12.307Z,4.90
2019-02-04T19:53:40.834Z,4.55
2019-02-04T19:56:09.184Z,4.97
2019-02-04T19:58:37.582Z,5.97
2019-02-04T20:01:05.861Z,5.72
2019-02-04T20:03:37.262Z,5.35
2019-02-04T20:06:06.725Z,5.67
2019-02-04T20:08:35.267Z,6.22
2019-02-04T20:11:06.427Z,6.65
2019-02-04T20:13:34.838Z,5.92
2019-02-04T20:16:03.649Z,7.10
2019-02-04T20:18:32.041Z,5.90
2019-02-04T20:21:00.622Z,6.33
2019-02-04T20:23:30.057Z,5.95
2019-02-04T20:25:58.386Z,7.37
2019-02-04T20:28:26.575Z,7.12
2019-02-04T20:30:55.163Z,6.62
2019-02-04T20:33:23.523Z,7.75
2019-02-04T20:35:52.065Z,7.10
2019-02-04T20:38:20.387Z,6.20
2019-02-04T20:40:48.633Z,6.90
2019-02-04T20:43:16.843Z,6.62
2019-02-04T20:45:45.191Z,7.28
2019-02-04T20:48:14.498Z,6.60
2019-02-04T20:50:45.117Z,6.60
2019-02-04T20:53:14.306Z,5.78
2019-02-04T20:55:42.840Z,6.60
2019-02-04T20:58:11.251Z,6.40
2019-02-04T21:00:39.328Z,6.12
2019-02-04T21:03:07.743Z,5.55
2019-02-04T21:05:35.937Z,5.72
2019-02-04T21:08:06.594Z,5.65
2019-02-04T21:10:36.275Z,6.12
2019-02-04T21:13:04.793Z,6.12
2019-02-04T21:15:33.302Z,5.95
2019-02-04T21:18:01.591Z,5.90
2019-02-04T21:20:29.918Z,6.87
2019-02-04T21:22:58.184Z,6.33
2019-02-04T21:25:26.532Z,6.67
2019-02-04T21:27:54.766Z,6.87
2019-02-04T21:30:29.242Z,6.30
2019-02-04T21:32:57.577Z,6.60
2019-02-04T21:35:25.633Z,6.85
2019-02-04T21:37:53.729Z,6.50
2019-02-04T21:40:21.993Z,6.62
2019-02-04T21:42:50.415Z,6.33
2019-02-04T21:45:19.621Z,6.20
2019-02-04T21:47:48.239Z,6.83
2019-02-04T21:50:19.394Z,6.35
2019-02-04T21:52:49.328Z,6.20
2019-02-04T21:55:20.059Z,6.28
2019-02-04T21:57:48.345Z,6.20
2019-02-04T22:00:22.999Z,6.53
2019-02-04T22:02:53.214Z,6.70
2019-02-04T22:05:25.327Z,6.97
2019-02-04T22:07:53.565Z,7.25
2019-02-04T22:10:23.899Z,6.30
2019-02-04T22:12:52.051Z,6.53
2019-02-04T22:15:20.380Z,6.70
2019-02-04T22:17:48.641Z,6.62
2019-02-04T22:20:18.201Z,7.45
2019-02-04T22:22:47.074Z,6.87
2019-02-04T22:25:19.610Z,6.20
2019-02-04T22:27:47.211Z,7.58
2019-02-04T22:30:22.030Z,6.92
2019-02-04T22:32:50.221Z,6.65
2019-02-04T22:35:18.306Z,7.03
2019-02-04T22:37:46.365Z,6.78
2019-02-04T22:40:20.688Z,6.37
2019-02-04T22:42:48.728Z,7.03
2019-02-04T22:45:16.816Z,7.12
2019-02-04T22:47:45.277Z,7.53
2019-02-04T22:50:17.444Z,7.30
2019-02-04T22:52:45.747Z,7.20
2019-02-04T22:55:14.542Z,7.17
2019-02-04T22:57:42.699Z,7.45
2019-02-04T23:00:59.169Z,7.60
2019-02-04T23:03:27.373Z,6.92
2019-02-04T23:05:55.857Z,7.17
2019-02-04T23:08:23.808Z,7.15
2019-02-04T23:13:18.483Z,8.08
2019-02-04T23:15:46.457Z,7.95
2019-02-04T23:18:14.693Z,7.55
2019-02-04T23:20:42.755Z,7.80
2019-02-04T23:23:10.797Z,7.35
2019-02-04T23:25:43.450Z,7.35
2019-02-04T23:28:08.825Z,7.42
2019-02-04T23:30:42.822Z,7.90
2019-02-04T23:33:10.741Z,8.88
2019-02-04T23:35:38.800Z,7.10
2019-02-04T23:38:06.852Z,8.55
2019-02-04T23:40:35.045Z,7.33
2019-02-04T23:43:03.282Z,7.30
2019-02-04T23:45:31.216Z,7.17
2019-02-04T23:47:59.602Z,7.40
2019-02-04T23:50:27.554Z,8.15
2019-02-04T23:52:57.511Z,7.92
2019-02-04T23:55:25.379Z,7.42
2019-02-04T23:57:53.335Z,6.65
